Sheppard AFB, Texas
Current Conditions -  °F | °C
As of 3:52 AM on Thursday 27 Nov 2014 (Local Time) from KSPS Reporting Station
Clear Clear  
Wind Chill: 31°   Ceiling: Unl
Heat Index: 35°   Visibility: 10mi
Dew Point: 26°   Wind: 5mph
Humidity: 70%   Direction: 30°NNE
Pressure: 30.49"   Gusts: NA
Location:  33.94°N, 98.5°W
Report Text: KSPS 270952Z AUTO 03004KT 10SM CLR 02/M03 A3049 RMK AO2 SLP323 T00171033 TSNO
Loading
Personal Weather Stations






























Interactive Weather Map New forecast layout! Learn more

10-Day Weather Forecast

Advertisements
Track Severe Weather on mobile